sensor_id;sensor_type;location;lat;lon;timestamp;P1;durP1;ratioP1;P2;durP2;ratioP2
3677;SDS011;1855;50.934;6.958;2024-01-11T00:02:01;24.97;;;20.97;;
3677;SDS011;1855;50.934;6.958;2024-01-11T00:04:27;24.42;;;20.08;;
3677;SDS011;1855;50.934;6.958;2024-01-11T00:06:54;24.95;;;20.40;;
3677;SDS011;1855;50.934;6.958;2024-01-11T00:09:21;22.83;;;19.63;;
3677;SDS011;1855;50.934;6.958;2024-01-11T00:11:48;22.65;;;20.10;;
3677;SDS011;1855;50.934;6.958;2024-01-11T00:14:15;23.48;;;19.02;;
3677;SDS011;1855;50.934;6.958;2024-01-11T00:16:42;21.92;;;19.45;;
3677;SDS011;1855;50.934;6.958;2024-01-11T00:19:10;22.70;;;19.90;;
3677;SDS011;1855;50.934;6.958;2024-01-11T00:21:36;22.48;;;18.98;;
3677;SDS011;1855;50.934;6.958;2024-01-11T00:24:03;21.75;;;19.33;;
3677;SDS011;1855;50.934;6.958;2024-01-11T00:26:29;20.38;;;18.27;;
3677;SDS011;1855;50.934;6.958;2024-01-11T00:28:56;22.20;;;18.90;;
3677;SDS011;1855;50.934;6.958;2024-01-11T00:31:22;23.90;;;20.13;;
3677;SDS011;1855;50.934;6.958;2024-01-11T00:33:49;19.55;;;17.35;;
3677;SDS011;1855;50.934;6.958;2024-01-11T00:36:20;22.02;;;19.63;;
3677;SDS011;1855;50.934;6.958;2024-01-11T00:38:47;20.50;;;18.20;;
3677;SDS011;1855;50.934;6.958;2024-01-11T00:41:13;20.70;;;18.35;;
3677;SDS011;1855;50.934;6.958;2024-01-11T00:43:40;22.55;;;19.15;;
3677;SDS011;1855;50.934;6.958;2024-01-11T00:46:07;21.40;;;18.45;;
3677;SDS011;1855;50.934;6.958;2024-01-11T00:48:34;21.20;;;18.05;;
3677;SDS011;1855;50.934;6.958;2024-01-11T00:51:01;22.13;;;18.43;;
3677;SDS011;1855;50.934;6.958;2024-01-11T00:53:29;21.85;;;18.77;;
3677;SDS011;1855;50.934;6.958;2024-01-11T00:55:56;21.75;;;18.20;;
3677;SDS011;1855;50.934;6.958;2024-01-11T00:58:22;19.13;;;17.02;;
3677;SDS011;1855;50.934;6.958;2024-01-11T01:00:49;20.95;;;17.88;;
3677;SDS011;1855;50.934;6.958;2024-01-11T01:03:17;19.65;;;17.27;;
3677;SDS011;1855;50.934;6.958;2024-01-11T01:05:44;18.45;;;16.45;;
3677;SDS011;1855;50.934;6.958;2024-01-11T01:08:11;21.50;;;17.08;;
3677;SDS011;1855;50.934;6.958;2024-01-11T01:10:39;20.02;;;17.60;;
3677;SDS011;1855;50.934;6.958;2024-01-11T01:13:06;22.75;;;18.30;;
3677;SDS011;1855;50.934;6.958;2024-01-11T01:15:32;21.75;;;19.33;;
3677;SDS011;1855;50.934;6.958;2024-01-11T01:17:59;23.00;;;18.88;;
3677;SDS011;1855;50.934;6.958;2024-01-11T01:20:26;21.92;;;19.35;;
3677;SDS011;1855;50.934;6.958;2024-01-11T01:22:53;21.70;;;19.05;;
3677;SDS011;1855;50.934;6.958;2024-01-11T01:25:19;21.48;;;18.50;;
3677;SDS011;1855;50.934;6.958;2024-01-11T01:27:47;22.17;;;19.00;;
3677;SDS011;1855;50.934;6.958;2024-01-11T01:30:14;21.48;;;19.15;;
3677;SDS011;1855;50.934;6.958;2024-01-11T01:32:41;24.08;;;20.10;;
3677;SDS011;1855;50.934;6.958;2024-01-11T01:35:08;22.20;;;19.50;;
3677;SDS011;1855;50.934;6.958;2024-01-11T01:37:34;23.00;;;20.50;;
3677;SDS011;1855;50.934;6.958;2024-01-11T01:40:01;24.52;;;19.20;;
3677;SDS011;1855;50.934;6.958;2024-01-11T01:42:28;24.77;;;20.38;;
3677;SDS011;1855;50.934;6.958;2024-01-11T01:44:56;24.00;;;19.80;;
3677;SDS011;1855;50.934;6.958;2024-01-11T01:47:23;25.92;;;20.20;;
3677;SDS011;1855;50.934;6.958;2024-01-11T01:49:50;25.33;;;20.80;;
3677;SDS011;1855;50.934;6.958;2024-01-11T01:52:17;25.35;;;21.30;;
3677;SDS011;1855;50.934;6.958;2024-01-11T01:54:45;25.37;;;21.47;;
3677;SDS011;1855;50.934;6.958;2024-01-11T01:57:13;23.67;;;20.40;;
3677;SDS011;1855;50.934;6.958;2024-01-11T01:59:41;26.13;;;21.23;;
3677;SDS011;1855;50.934;6.958;2024-01-11T02:02:09;23.25;;;19.85;;
3677;SDS011;1855;50.934;6.958;2024-01-11T02:04:37;23.23;;;19.87;;
3677;SDS011;1855;50.934;6.958;2024-01-11T02:07:04;25.40;;;20.80;;
3677;SDS011;1855;50.934;6.958;2024-01-11T02:09:32;24.52;;;20.30;;
3677;SDS011;1855;50.934;6.958;2024-01-11T02:11:59;23.90;;;20.13;;
3677;SDS011;1855;50.934;6.958;2024-01-11T02:14:28;21.65;;;19.10;;
3677;SDS011;1855;50.934;6.958;2024-01-11T02:16:55;24.73;;;19.98;;
3677;SDS011;1855;50.934;6.958;2024-01-11T02:19:23;23.58;;;19.52;;
3677;SDS011;1855;50.934;6.958;2024-01-11T02:21:50;23.85;;;19.83;;
3677;SDS011;1855;50.934;6.958;2024-01-11T02:24:21;23.95;;;20.15;;
3677;SDS011;1855;50.934;6.958;2024-01-11T02:26:58;22.75;;;19.05;;
3677;SDS011;1855;50.934;6.958;2024-01-11T02:29:25;26.60;;;20.75;;
3677;SDS011;1855;50.934;6.958;2024-01-11T02:31:52;23.00;;;19.27;;
3677;SDS011;1855;50.934;6.958;2024-01-11T02:34:19;24.83;;;19.98;;
3677;SDS011;1855;50.934;6.958;2024-01-11T02:36:47;24.13;;;20.02;;
3677;SDS011;1855;50.934;6.958;2024-01-11T02:39:14;24.42;;;19.95;;
3677;SDS011;1855;50.934;6.958;2024-01-11T02:41:44;28.17;;;20.27;;
3677;SDS011;1855;50.934;6.958;2024-01-11T02:44:11;24.63;;;20.63;;
3677;SDS011;1855;50.934;6.958;2024-01-11T02:46:38;26.02;;;20.13;;
3677;SDS011;1855;50.934;6.958;2024-01-11T02:49:05;26.75;;;20.55;;
3677;SDS011;1855;50.934;6.958;2024-01-11T02:51:31;26.05;;;20.90;;
3677;SDS011;1855;50.934;6.958;2024-01-11T02:53:58;25.20;;;21.60;;
3677;SDS011;1855;50.934;6.958;2024-01-11T02:56:25;26.65;;;21.33;;
3677;SDS011;1855;50.934;6.958;2024-01-11T02:58:53;24.20;;;21.60;;
3677;SDS011;1855;50.934;6.958;2024-01-11T03:01:20;26.65;;;22.30;;
3677;SDS011;1855;50.934;6.958;2024-01-11T03:03:46;23.60;;;20.87;;
3677;SDS011;1855;50.934;6.958;2024-01-11T03:06:13;23.15;;;20.63;;
3677;SDS011;1855;50.934;6.958;2024-01-11T03:08:40;24.58;;;21.27;;
3677;SDS011;1855;50.934;6.958;2024-01-11T03:11:06;25.45;;;21.65;;
3677;SDS011;1855;50.934;6.958;2024-01-11T03:13:33;24.83;;;21.33;;
3677;SDS011;1855;50.934;6.958;2024-01-11T03:16:01;24.05;;;21.02;;
3677;SDS011;1855;50.934;6.958;2024-01-11T03:18:28;27.35;;;21.92;;
3677;SDS011;1855;50.934;6.958;2024-01-11T03:20:56;25.55;;;21.63;;
3677;SDS011;1855;50.934;6.958;2024-01-11T03:23:23;25.25;;;21.52;;
3677;SDS011;1855;50.934;6.958;2024-01-11T03:25:49;26.63;;;22.35;;
3677;SDS011;1855;50.934;6.958;2024-01-11T03:28:16;26.92;;;21.98;;
3677;SDS011;1855;50.934;6.958;2024-01-11T03:30:43;26.27;;;22.07;;
3677;SDS011;1855;50.934;6.958;2024-01-11T03:33:11;26.05;;;22.15;;
3677;SDS011;1855;50.934;6.958;2024-01-11T03:35:38;25.98;;;22.67;;
3677;SDS011;1855;50.934;6.958;2024-01-11T03:38:05;24.08;;;21.48;;
3677;SDS011;1855;50.934;6.958;2024-01-11T03:40:32;23.58;;;20.48;;
3677;SDS011;1855;50.934;6.958;2024-01-11T03:42:58;25.17;;;20.58;;
3677;SDS011;1855;50.934;6.958;2024-01-11T03:45:25;24.80;;;22.10;;
3677;SDS011;1855;50.934;6.958;2024-01-11T03:47:52;24.35;;;20.25;;
3677;SDS011;1855;50.934;6.958;2024-01-11T03:50:20;22.73;;;19.85;;
3677;SDS011;1855;50.934;6.958;2024-01-11T03:52:47;23.88;;;19.80;;
3677;SDS011;1855;50.934;6.958;2024-01-11T03:55:13;24.93;;;20.33;;
3677;SDS011;1855;50.934;6.958;2024-01-11T03:57:40;23.92;;;21.13;;
3677;SDS011;1855;50.934;6.958;2024-01-11T04:00:07;23.05;;;19.65;;
3677;SDS011;1855;50.934;6.958;2024-01-11T04:02:34;23.50;;;19.15;;
3677;SDS011;1855;50.934;6.958;2024-01-11T04:05:01;22.88;;;19.25;;
3677;SDS011;1855;50.934;6.958;2024-01-11T04:07:30;23.88;;;19.58;;
3677;SDS011;1855;50.934;6.958;2024-01-11T04:09:56;24.25;;;20.48;;
3677;SDS011;1855;50.934;6.958;2024-01-11T04:12:24;24.85;;;21.13;;
3677;SDS011;1855;50.934;6.958;2024-01-11T04:14:50;22.42;;;19.73;;
3677;SDS011;1855;50.934;6.958;2024-01-11T04:17:17;24.42;;;21.05;;
3677;SDS011;1855;50.934;6.958;2024-01-11T04:19:44;25.27;;;20.17;;
3677;SDS011;1855;50.934;6.958;2024-01-11T04:22:10;22.95;;;20.00;;
3677;SDS011;1855;50.934;6.958;2024-01-11T04:24:38;23.43;;;19.70;;
3677;SDS011;1855;50.934;6.958;2024-01-11T04:27:07;23.20;;;20.70;;
3677;SDS011;1855;50.934;6.958;2024-01-11T04:29:34;26.33;;;19.88;;
3677;SDS011;1855;50.934;6.958;2024-01-11T04:32:01;20.47;;;18.23;;
3677;SDS011;1855;50.934;6.958;2024-01-11T04:34:28;24.08;;;19.75;;
3677;SDS011;1855;50.934;6.958;2024-01-11T04:36:54;22.50;;;19.40;;
3677;SDS011;1855;50.934;6.958;2024-01-11T04:39:21;23.25;;;19.92;;
3677;SDS011;1855;50.934;6.958;2024-01-11T04:41:49;23.30;;;19.27;;
3677;SDS011;1855;50.934;6.958;2024-01-11T04:44:16;25.33;;;20.00;;
3677;SDS011;1855;50.934;6.958;2024-01-11T04:46:43;23.98;;;20.08;;
3677;SDS011;1855;50.934;6.958;2024-01-11T04:49:09;23.20;;;19.35;;
3677;SDS011;1855;50.934;6.958;2024-01-11T04:51:36;23.75;;;20.23;;
3677;SDS011;1855;50.934;6.958;2024-01-11T04:54:03;25.08;;;20.20;;
3677;SDS011;1855;50.934;6.958;2024-01-11T04:56:30;25.35;;;21.20;;
3677;SDS011;1855;50.934;6.958;2024-01-11T04:58:58;24.60;;;20.40;;
3677;SDS011;1855;50.934;6.958;2024-01-11T05:01:24;25.13;;;20.13;;
3677;SDS011;1855;50.934;6.958;2024-01-11T05:03:51;23.08;;;20.25;;
3677;SDS011;1855;50.934;6.958;2024-01-11T05:06:18;24.63;;;20.20;;
3677;SDS011;1855;50.934;6.958;2024-01-11T05:08:46;25.90;;;21.10;;
3677;SDS011;1855;50.934;6.958;2024-01-11T05:11:16;24.42;;;20.10;;
3677;SDS011;1855;50.934;6.958;2024-01-11T05:13:43;23.83;;;20.75;;
3677;SDS011;1855;50.934;6.958;2024-01-11T05:16:21;22.80;;;19.38;;
3677;SDS011;1855;50.934;6.958;2024-01-11T05:18:48;23.83;;;19.58;;
3677;SDS011;1855;50.934;6.958;2024-01-11T05:21:15;22.33;;;19.88;;
3677;SDS011;1855;50.934;6.958;2024-01-11T05:23:42;24.38;;;19.70;;
3677;SDS011;1855;50.934;6.958;2024-01-11T05:26:09;24.17;;;20.17;;
3677;SDS011;1855;50.934;6.958;2024-01-11T05:28:36;24.20;;;19.90;;
3677;SDS011;1855;50.934;6.958;2024-01-11T05:31:05;24.40;;;20.60;;
3677;SDS011;1855;50.934;6.958;2024-01-11T05:33:34;24.77;;;20.53;;
3677;SDS011;1855;50.934;6.958;2024-01-11T05:36:00;22.70;;;20.00;;
3677;SDS011;1855;50.934;6.958;2024-01-11T05:38:27;24.65;;;19.75;;
3677;SDS011;1855;50.934;6.958;2024-01-11T05:40:54;24.35;;;19.65;;
3677;SDS011;1855;50.934;6.958;2024-01-11T05:43:21;26.60;;;20.73;;
3677;SDS011;1855;50.934;6.958;2024-01-11T05:45:48;26.10;;;21.02;;
3677;SDS011;1855;50.934;6.958;2024-01-11T05:48:15;26.65;;;21.48;;
3677;SDS011;1855;50.934;6.958;2024-01-11T05:50:43;24.63;;;20.73;;
3677;SDS011;1855;50.934;6.958;2024-01-11T05:53:10;26.13;;;22.33;;
3677;SDS011;1855;50.934;6.958;2024-01-11T05:55:37;25.92;;;21.40;;
3677;SDS011;1855;50.934;6.958;2024-01-11T05:58:04;26.23;;;21.85;;
3677;SDS011;1855;50.934;6.958;2024-01-11T06:00:31;27.80;;;21.90;;
3677;SDS011;1855;50.934;6.958;2024-01-11T06:02:58;26.80;;;22.60;;
3677;SDS011;1855;50.934;6.958;2024-01-11T06:05:25;26.20;;;22.05;;
3677;SDS011;1855;50.934;6.958;2024-01-11T06:07:53;27.75;;;21.95;;
3677;SDS011;1855;50.934;6.958;2024-01-11T06:10:20;28.45;;;23.10;;
3677;SDS011;1855;50.934;6.958;2024-01-11T06:12:46;29.20;;;23.65;;
3677;SDS011;1855;50.934;6.958;2024-01-11T06:15:13;25.90;;;22.40;;
3677;SDS011;1855;50.934;6.958;2024-01-11T06:17:40;28.25;;;22.35;;
3677;SDS011;1855;50.934;6.958;2024-01-11T06:20:07;26.33;;;22.17;;
3677;SDS011;1855;50.934;6.958;2024-01-11T06:22:35;28.02;;;23.23;;
3677;SDS011;1855;50.934;6.958;2024-01-11T06:25:03;26.30;;;22.40;;
3677;SDS011;1855;50.934;6.958;2024-01-11T06:27:30;26.93;;;23.00;;
3677;SDS011;1855;50.934;6.958;2024-01-11T06:29:57;27.23;;;22.63;;
3677;SDS011;1855;50.934;6.958;2024-01-11T06:32:24;25.58;;;21.92;;
3677;SDS011;1855;50.934;6.958;2024-01-11T06:34:50;26.27;;;23.48;;
3677;SDS011;1855;50.934;6.958;2024-01-11T06:37:17;28.08;;;23.45;;
3677;SDS011;1855;50.934;6.958;2024-01-11T06:39:44;27.25;;;23.10;;
3677;SDS011;1855;50.934;6.958;2024-01-11T06:42:12;27.77;;;23.50;;
3677;SDS011;1855;50.934;6.958;2024-01-11T06:44:39;30.73;;;23.98;;
3677;SDS011;1855;50.934;6.958;2024-01-11T06:47:06;27.80;;;23.20;;
3677;SDS011;1855;50.934;6.958;2024-01-11T06:49:33;30.70;;;23.33;;
3677;SDS011;1855;50.934;6.958;2024-01-11T06:52:00;28.42;;;22.75;;
3677;SDS011;1855;50.934;6.958;2024-01-11T06:54:27;31.08;;;24.25;;
3677;SDS011;1855;50.934;6.958;2024-01-11T06:56:55;27.13;;;23.30;;
3677;SDS011;1855;50.934;6.958;2024-01-11T06:59:23;30.03;;;23.33;;
3677;SDS011;1855;50.934;6.958;2024-01-11T07:01:50;30.27;;;23.13;;
3677;SDS011;1855;50.934;6.958;2024-01-11T07:04:16;28.38;;;23.38;;
3677;SDS011;1855;50.934;6.958;2024-01-11T07:06:43;28.40;;;22.70;;
3677;SDS011;1855;50.934;6.958;2024-01-11T07:09:10;26.75;;;22.65;;
3677;SDS011;1855;50.934;6.958;2024-01-11T07:11:37;25.85;;;23.13;;
3677;SDS011;1855;50.934;6.958;2024-01-11T07:14:04;28.20;;;22.40;;
3677;SDS011;1855;50.934;6.958;2024-01-11T07:16:32;27.38;;;22.83;;
3677;SDS011;1855;50.934;6.958;2024-01-11T07:18:58;29.80;;;22.13;;
3677;SDS011;1855;50.934;6.958;2024-01-11T07:21:26;26.52;;;22.45;;
3677;SDS011;1855;50.934;6.958;2024-01-11T07:23:56;28.08;;;23.27;;
3677;SDS011;1855;50.934;6.958;2024-01-11T07:26:23;30.90;;;24.10;;
3677;SDS011;1855;50.934;6.958;2024-01-11T07:28:50;29.20;;;23.10;;
3677;SDS011;1855;50.934;6.958;2024-01-11T07:31:17;28.98;;;23.40;;
3677;SDS011;1855;50.934;6.958;2024-01-11T07:33:45;30.05;;;23.58;;
3677;SDS011;1855;50.934;6.958;2024-01-11T07:36:11;29.98;;;23.83;;
3677;SDS011;1855;50.934;6.958;2024-01-11T07:38:38;26.48;;;23.35;;
3677;SDS011;1855;50.934;6.958;2024-01-11T07:41:05;27.70;;;22.90;;
3677;SDS011;1855;50.934;6.958;2024-01-11T07:43:32;30.33;;;24.20;;
3677;SDS011;1855;50.934;6.958;2024-01-11T07:46:00;28.40;;;23.75;;
3677;SDS011;1855;50.934;6.958;2024-01-11T07:48:28;30.80;;;24.52;;
3677;SDS011;1855;50.934;6.958;2024-01-11T07:50:57;29.30;;;25.33;;
3677;SDS011;1855;50.934;6.958;2024-01-11T07:53:24;28.83;;;23.95;;
3677;SDS011;1855;50.934;6.958;2024-01-11T07:55:50;29.20;;;23.92;;
3677;SDS011;1855;50.934;6.958;2024-01-11T07:58:17;30.75;;;23.90;;
3677;SDS011;1855;50.934;6.958;2024-01-11T08:00:45;29.40;;;24.10;;
3677;SDS011;1855;50.934;6.958;2024-01-11T08:03:13;33.20;;;25.33;;
3677;SDS011;1855;50.934;6.958;2024-01-11T08:05:39;31.40;;;24.35;;
3677;SDS011;1855;50.934;6.958;2024-01-11T08:08:09;29.77;;;25.75;;
3677;SDS011;1855;50.934;6.958;2024-01-11T08:10:36;31.50;;;25.30;;
3677;SDS011;1855;50.934;6.958;2024-01-11T08:13:03;30.05;;;24.50;;
3677;SDS011;1855;50.934;6.958;2024-01-11T08:15:29;31.27;;;24.17;;
3677;SDS011;1855;50.934;6.958;2024-01-11T08:17:56;29.58;;;24.08;;
3677;SDS011;1855;50.934;6.958;2024-01-11T08:20:23;30.70;;;24.90;;
3677;SDS011;1855;50.934;6.958;2024-01-11T08:22:50;27.52;;;23.77;;
3677;SDS011;1855;50.934;6.958;2024-01-11T08:25:18;29.75;;;24.45;;
3677;SDS011;1855;50.934;6.958;2024-01-11T08:27:45;30.77;;;24.80;;
3677;SDS011;1855;50.934;6.958;2024-01-11T08:30:12;31.88;;;25.13;;
3677;SDS011;1855;50.934;6.958;2024-01-11T08:32:39;31.73;;;24.92;;
3677;SDS011;1855;50.934;6.958;2024-01-11T08:35:07;27.40;;;23.23;;
3677;SDS011;1855;50.934;6.958;2024-01-11T08:37:36;28.73;;;25.20;;
3677;SDS011;1855;50.934;6.958;2024-01-11T08:40:03;26.95;;;23.35;;
3677;SDS011;1855;50.934;6.958;2024-01-11T08:42:32;27.95;;;23.25;;
3677;SDS011;1855;50.934;6.958;2024-01-11T08:44:59;27.67;;;23.03;;
3677;SDS011;1855;50.934;6.958;2024-01-11T08:47:31;31.30;;;24.67;;
3677;SDS011;1855;50.934;6.958;2024-01-11T08:49:58;29.75;;;24.70;;
3677;SDS011;1855;50.934;6.958;2024-01-11T08:52:25;31.53;;;23.90;;
3677;SDS011;1855;50.934;6.958;2024-01-11T08:54:52;27.85;;;23.50;;
3677;SDS011;1855;50.934;6.958;2024-01-11T08:57:18;28.30;;;25.20;;
3677;SDS011;1855;50.934;6.958;2024-01-11T08:59:46;29.98;;;24.00;;
3677;SDS011;1855;50.934;6.958;2024-01-11T09:02:13;27.27;;;23.10;;
3677;SDS011;1855;50.934;6.958;2024-01-11T09:04:40;27.95;;;24.15;;
3677;SDS011;1855;50.934;6.958;2024-01-11T09:07:06;28.67;;;24.70;;
3677;SDS011;1855;50.934;6.958;2024-01-11T09:09:33;31.13;;;25.67;;
3677;SDS011;1855;50.934;6.958;2024-01-11T09:12:00;30.00;;;24.70;;
3677;SDS011;1855;50.934;6.958;2024-01-11T09:14:27;30.67;;;24.40;;
3677;SDS011;1855;50.934;6.958;2024-01-11T09:16:55;28.92;;;24.92;;
3677;SDS011;1855;50.934;6.958;2024-01-11T09:19:22;28.27;;;25.10;;
3677;SDS011;1855;50.934;6.958;2024-01-11T09:21:50;27.80;;;24.10;;
3677;SDS011;1855;50.934;6.958;2024-01-11T09:24:17;28.52;;;23.40;;
3677;SDS011;1855;50.934;6.958;2024-01-11T09:26:43;27.95;;;23.63;;
3677;SDS011;1855;50.934;6.958;2024-01-11T09:29:10;28.63;;;24.55;;
3677;SDS011;1855;50.934;6.958;2024-01-11T09:31:37;27.13;;;24.23;;
3677;SDS011;1855;50.934;6.958;2024-01-11T09:34:05;28.17;;;24.75;;
3677;SDS011;1855;50.934;6.958;2024-01-11T09:36:32;30.75;;;24.90;;
3677;SDS011;1855;50.934;6.958;2024-01-11T09:39:00;28.67;;;25.40;;
3677;SDS011;1855;50.934;6.958;2024-01-11T09:41:27;29.55;;;25.05;;
3677;SDS011;1855;50.934;6.958;2024-01-11T09:43:55;26.98;;;23.88;;
3677;SDS011;1855;50.934;6.958;2024-01-11T09:46:26;29.23;;;25.02;;
3677;SDS011;1855;50.934;6.958;2024-01-11T09:48:54;29.88;;;24.52;;
3677;SDS011;1855;50.934;6.958;2024-01-11T09:51:24;27.45;;;24.38;;
3677;SDS011;1855;50.934;6.958;2024-01-11T09:53:52;30.07;;;26.50;;
3677;SDS011;1855;50.934;6.958;2024-01-11T09:56:21;27.88;;;24.88;;
3677;SDS011;1855;50.934;6.958;2024-01-11T09:58:50;29.73;;;24.95;;
3677;SDS011;1855;50.934;6.958;2024-01-11T10:01:16;28.23;;;25.23;;
3677;SDS011;1855;50.934;6.958;2024-01-11T10:03:43;29.90;;;26.33;;
3677;SDS011;1855;50.934;6.958;2024-01-11T10:06:11;31.42;;;27.20;;
3677;SDS011;1855;50.934;6.958;2024-01-11T10:08:42;29.40;;;25.90;;
3677;SDS011;1855;50.934;6.958;2024-01-11T10:11:09;30.40;;;26.88;;
3677;SDS011;1855;50.934;6.958;2024-01-11T10:13:36;29.02;;;25.92;;
3677;SDS011;1855;50.934;6.958;2024-01-11T10:16:06;31.13;;;25.90;;
3677;SDS011;1855;50.934;6.958;2024-01-11T10:18:34;29.70;;;26.50;;
3677;SDS011;1855;50.934;6.958;2024-01-11T10:21:01;31.07;;;27.63;;
3677;SDS011;1855;50.934;6.958;2024-01-11T10:23:28;30.10;;;26.90;;
3677;SDS011;1855;50.934;6.958;2024-01-11T10:25:57;29.20;;;26.20;;
3677;SDS011;1855;50.934;6.958;2024-01-11T10:28:24;28.83;;;25.73;;
3677;SDS011;1855;50.934;6.958;2024-01-11T10:30:52;29.98;;;26.77;;
3677;SDS011;1855;50.934;6.958;2024-01-11T10:33:19;29.83;;;26.57;;
3677;SDS011;1855;50.934;6.958;2024-01-11T10:35:45;32.13;;;26.90;;
3677;SDS011;1855;50.934;6.958;2024-01-11T10:38:13;29.85;;;25.70;;
3677;SDS011;1855;50.934;6.958;2024-01-11T10:40:40;29.38;;;26.27;;
3677;SDS011;1855;50.934;6.958;2024-01-11T10:43:09;29.73;;;26.00;;
3677;SDS011;1855;50.934;6.958;2024-01-11T10:45:37;29.92;;;26.73;;
3677;SDS011;1855;50.934;6.958;2024-01-11T10:48:06;29.55;;;25.88;;
3677;SDS011;1855;50.934;6.958;2024-01-11T10:50:34;28.45;;;25.45;;
3677;SDS011;1855;50.934;6.958;2024-01-11T10:53:03;30.55;;;27.00;;
3677;SDS011;1855;50.934;6.958;2024-01-11T10:55:35;30.13;;;26.85;;
3677;SDS011;1855;50.934;6.958;2024-01-11T10:58:03;31.33;;;27.73;;
3677;SDS011;1855;50.934;6.958;2024-01-11T11:00:32;29.70;;;26.60;;
3677;SDS011;1855;50.934;6.958;2024-01-11T11:03:01;31.70;;;26.70;;
3677;SDS011;1855;50.934;6.958;2024-01-11T11:05:31;31.30;;;26.60;;
3677;SDS011;1855;50.934;6.958;2024-01-11T11:08:00;34.03;;;27.73;;
3677;SDS011;1855;50.934;6.958;2024-01-11T11:10:28;30.80;;;27.50;;
3677;SDS011;1855;50.934;6.958;2024-01-11T11:12:55;30.30;;;27.00;;
3677;SDS011;1855;50.934;6.958;2024-01-11T11:15:24;30.40;;;27.02;;
3677;SDS011;1855;50.934;6.958;2024-01-11T11:17:55;30.30;;;27.05;;
3677;SDS011;1855;50.934;6.958;2024-01-11T11:20:22;31.98;;;27.85;;
3677;SDS011;1855;50.934;6.958;2024-01-11T11:23:02;30.20;;;27.10;;
3677;SDS011;1855;50.934;6.958;2024-01-11T11:25:30;31.48;;;27.98;;
3677;SDS011;1855;50.934;6.958;2024-01-11T11:27:57;31.45;;;27.05;;
3677;SDS011;1855;50.934;6.958;2024-01-11T11:30:24;29.93;;;25.90;;
3677;SDS011;1855;50.934;6.958;2024-01-11T11:32:51;30.10;;;26.90;;
3677;SDS011;1855;50.934;6.958;2024-01-11T11:35:19;30.25;;;27.05;;
3677;SDS011;1855;50.934;6.958;2024-01-11T11:37:48;31.42;;;27.15;;
3677;SDS011;1855;50.934;6.958;2024-01-11T11:40:19;30.70;;;27.50;;
3677;SDS011;1855;50.934;6.958;2024-01-11T11:42:47;30.65;;;27.35;;
3677;SDS011;1855;50.934;6.958;2024-01-11T11:45:14;28.92;;;25.42;;
3677;SDS011;1855;50.934;6.958;2024-01-11T11:47:51;31.98;;;27.10;;
3677;SDS011;1855;50.934;6.958;2024-01-11T11:50:21;29.90;;;26.70;;
3677;SDS011;1855;50.934;6.958;2024-01-11T11:52:53;30.63;;;26.98;;
3677;SDS011;1855;50.934;6.958;2024-01-11T11:55:20;30.75;;;26.55;;
3677;SDS011;1855;50.934;6.958;2024-01-11T11:57:49;29.92;;;26.80;;
3677;SDS011;1855;50.934;6.958;2024-01-11T12:00:17;30.52;;;27.38;;
3677;SDS011;1855;50.934;6.958;2024-01-11T12:02:43;28.40;;;25.40;;
3677;SDS011;1855;50.934;6.958;2024-01-11T12:05:12;28.02;;;25.02;;
3677;SDS011;1855;50.934;6.958;2024-01-11T12:07:40;28.52;;;25.52;;
3677;SDS011;1855;50.934;6.958;2024-01-11T12:10:07;30.00;;;26.20;;
3677;SDS011;1855;50.934;6.958;2024-01-11T12:12:34;29.15;;;26.05;;
3677;SDS011;1855;50.934;6.958;2024-01-11T12:15:05;29.20;;;25.98;;
3677;SDS011;1855;50.934;6.958;2024-01-11T12:17:32;27.55;;;24.30;;
3677;SDS011;1855;50.934;6.958;2024-01-11T12:19:59;27.75;;;24.85;;
3677;SDS011;1855;50.934;6.958;2024-01-11T12:22:26;27.63;;;24.83;;
3677;SDS011;1855;50.934;6.958;2024-01-11T12:24:54;28.93;;;24.70;;
3677;SDS011;1855;50.934;6.958;2024-01-11T12:27:22;27.52;;;24.70;;
3677;SDS011;1855;50.934;6.958;2024-01-11T12:29:49;25.80;;;23.10;;
3677;SDS011;1855;50.934;6.958;2024-01-11T12:32:16;28.20;;;25.30;;
3677;SDS011;1855;50.934;6.958;2024-01-11T12:34:43;26.50;;;23.80;;
3677;SDS011;1855;50.934;6.958;2024-01-11T12:37:11;27.33;;;24.42;;
3677;SDS011;1855;50.934;6.958;2024-01-11T12:39:38;28.17;;;25.38;;
3677;SDS011;1855;50.934;6.958;2024-01-11T12:42:06;29.60;;;26.48;;
3677;SDS011;1855;50.934;6.958;2024-01-11T12:44:34;27.33;;;24.50;;
3677;SDS011;1855;50.934;6.958;2024-01-11T12:47:03;28.40;;;25.40;;
3677;SDS011;1855;50.934;6.958;2024-01-11T12:49:31;30.13;;;27.20;;
3677;SDS011;1855;50.934;6.958;2024-01-11T12:51:58;28.80;;;25.80;;
3677;SDS011;1855;50.934;6.958;2024-01-11T12:54:25;28.95;;;26.05;;
3677;SDS011;1855;50.934;6.958;2024-01-11T12:56:51;29.70;;;26.50;;
3677;SDS011;1855;50.934;6.958;2024-01-11T12:59:19;30.05;;;27.10;;
3677;SDS011;1855;50.934;6.958;2024-01-11T13:01:51;30.42;;;26.83;;
3677;SDS011;1855;50.934;6.958;2024-01-11T13:04:18;30.25;;;26.85;;
3677;SDS011;1855;50.934;6.958;2024-01-11T13:06:45;28.40;;;25.50;;
3677;SDS011;1855;50.934;6.958;2024-01-11T13:09:12;30.02;;;26.80;;
3677;SDS011;1855;50.934;6.958;2024-01-11T13:11:39;31.02;;;27.63;;
3677;SDS011;1855;50.934;6.958;2024-01-11T13:14:06;30.95;;;27.65;;
3677;SDS011;1855;50.934;6.958;2024-01-11T13:16:40;31.88;;;28.65;;
3677;SDS011;1855;50.934;6.958;2024-01-11T13:19:07;31.80;;;28.40;;
3677;SDS011;1855;50.934;6.958;2024-01-11T13:21:35;51.13;;;44.78;;
3677;SDS011;1855;50.934;6.958;2024-01-11T13:24:03;37.80;;;33.60;;
3677;SDS011;1855;50.934;6.958;2024-01-11T13:26:30;49.72;;;44.42;;
3677;SDS011;1855;50.934;6.958;2024-01-11T13:28:57;36.50;;;32.70;;
3677;SDS011;1855;50.934;6.958;2024-01-11T13:31:24;33.15;;;29.80;;
3677;SDS011;1855;50.934;6.958;2024-01-11T13:33:52;32.35;;;29.15;;
3677;SDS011;1855;50.934;6.958;2024-01-11T13:36:20;31.05;;;27.83;;
3677;SDS011;1855;50.934;6.958;2024-01-11T13:38:46;30.55;;;27.55;;
3677;SDS011;1855;50.934;6.958;2024-01-11T13:41:14;31.95;;;28.65;;
3677;SDS011;1855;50.934;6.958;2024-01-11T13:43:42;32.90;;;29.50;;
3677;SDS011;1855;50.934;6.958;2024-01-11T13:46:08;32.75;;;29.35;;
3677;SDS011;1855;50.934;6.958;2024-01-11T13:48:37;32.28;;;28.85;;
3677;SDS011;1855;50.934;6.958;2024-01-11T13:51:05;32.47;;;27.60;;
3677;SDS011;1855;50.934;6.958;2024-01-11T13:53:34;29.83;;;26.80;;
3677;SDS011;1855;50.934;6.958;2024-01-11T13:56:00;30.80;;;27.50;;
3677;SDS011;1855;50.934;6.958;2024-01-11T13:58:27;32.22;;;28.83;;
3677;SDS011;1855;50.934;6.958;2024-01-11T14:00:54;33.40;;;29.90;;
3677;SDS011;1855;50.934;6.958;2024-01-11T14:03:21;30.30;;;27.10;;
3677;SDS011;1855;50.934;6.958;2024-01-11T14:05:48;30.60;;;27.27;;
3677;SDS011;1855;50.934;6.958;2024-01-11T14:08:16;32.80;;;28.92;;
3677;SDS011;1855;50.934;6.958;2024-01-11T14:10:42;31.73;;;28.47;;
3677;SDS011;1855;50.934;6.958;2024-01-11T14:13:09;32.70;;;28.75;;
3677;SDS011;1855;50.934;6.958;2024-01-11T14:15:36;33.85;;;27.63;;
3677;SDS011;1855;50.934;6.958;2024-01-11T14:18:03;30.15;;;26.95;;
3677;SDS011;1855;50.934;6.958;2024-01-11T14:20:30;31.95;;;27.10;;
3677;SDS011;1855;50.934;6.958;2024-01-11T14:22:59;32.40;;;28.30;;
3677;SDS011;1855;50.934;6.958;2024-01-11T14:25:27;29.50;;;25.52;;
3677;SDS011;1855;50.934;6.958;2024-01-11T14:27:57;29.08;;;24.55;;
3677;SDS011;1855;50.934;6.958;2024-01-11T14:30:24;31.17;;;25.70;;
3677;SDS011;1855;50.934;6.958;2024-01-11T14:32:51;30.13;;;26.90;;
3677;SDS011;1855;50.934;6.958;2024-01-11T14:35:18;27.23;;;24.33;;
3677;SDS011;1855;50.934;6.958;2024-01-11T14:37:45;29.63;;;26.53;;
3677;SDS011;1855;50.934;6.958;2024-01-11T14:40:12;28.33;;;25.33;;
3677;SDS011;1855;50.934;6.958;2024-01-11T14:42:40;30.33;;;26.85;;
3677;SDS011;1855;50.934;6.958;2024-01-11T14:45:07;29.63;;;25.92;;
3677;SDS011;1855;50.934;6.958;2024-01-11T14:47:34;29.00;;;25.90;;
3677;SDS011;1855;50.934;6.958;2024-01-11T14:50:02;31.92;;;26.55;;